Home > Products > Valid Products > TAF

000
FTPA31 PHFO 241700
TAFHNL
TAF
PHNL 241737Z 2418/2524 06010KT P6SM FEW025 SCT060
     FM241900 06016G24KT P6SM FEW030 SCT050
     FM250500 06010KT P6SM FEW030 SCT050
     FM252000 06014G21KT P6SM FEW025 SCT060=



000
FTPA31 PHFO 241700
TAFHNL
TAF
PHNL 241737Z 2418/2524 06010KT P6SM FEW025 SCT060
     FM241900 06016G24KT P6SM FEW030 SCT050
     FM250500 06010KT P6SM FEW030 SCT050
     FM252000 06014G21KT P6SM FEW025 SCT060=



000
FTPA31 PHFO 241500 AAA
TAFHNL
TAF AMD
PHNL 241513Z 2415/2518 06010KT P6SM FEW030 SCT060
     FM241900 06016G24KT P6SM FEW030 SCT050
     FM250500 06010KT P6SM FEW030 SCT050=



000
FTPA31 PHFO 241100
TAFHNL
TAF
PHNL 241130Z 2412/2518 06010KT P6SM FEW030 BKN060
     FM241900 06016G24KT P6SM FEW030 SCT050
     FM250500 06010KT P6SM FEW030 SCT050=



000
FTPA31 PHFO 241100
TAFHNL
TAF
PHNL 241130Z 2412/2518 06010KT P6SM FEW030 BKN060
     FM241900 06016G24KT P6SM FEW030 SCT050
     FM250500 06010KT P6SM FEW030 SCT050=



000
FTPA31 PHFO 240900 AAA
TAFHNL
TAF AMD
PHNL 240905Z 2409/2512 06011KT P6SM FEW030 BKN050
     FM241900 06016G24KT P6SM FEW030 SCT050
     FM250500 06010KT P6SM FEW030 SCT050=



000
FTPA31 PHFO 240900 AAA
TAFHNL
TAF AMD
PHNL 240905Z 2409/2512 06011KT P6SM FEW030 BKN050
     FM241900 06016G24KT P6SM FEW030 SCT050
     FM250500 06010KT P6SM FEW030 SCT050=



000
FTPA31 PHFO 240500
TAFHNL
TAF
PHNL 240524Z 2406/2512 06013G20KT P6SM FEW030 BKN050
     FM240900 06011KT P6SM FEW030 SCT050
     FM241900 06016G24KT P6SM FEW030 SCT050
     FM250500 06010KT P6SM FEW030 SCT050=



000
FTPA31 PHFO 240300 AAA
TAFHNL
TAF AMD
PHNL 240305Z 2403/2506 06013G22KT P6SM SCT030 BKN050
     FM240600 06011KT P6SM FEW030 SCT050
     FM242000 06015G25KT P6SM SCT030 BKN050
     FM250500 06011KT P6SM FEW030 SCT050=



000
FTPA31 PHFO 232300
TAFHNL
TAF
PHNL 232335Z 2400/2506 06016G26KT P6SM SCT030 BKN050
     FM240600 06011KT P6SM FEW030 SCT050
     FM242000 06015G25KT P6SM SCT030 BKN050
     FM250500 06011KT P6SM FEW030 SCT050=



000
FTPA31 PHFO 232300
TAFHNL
TAF
PHNL 232335Z 2400/2506 06016G26KT P6SM SCT030 BKN050
     FM240600 06011KT P6SM FEW030 SCT050
     FM242000 06015G25KT P6SM SCT030 BKN050
     FM250500 06011KT P6SM FEW030 SCT050=



000
FTPA31 PHFO 232100 AAA
TAFHNL
TAF AMD
PHNL 232105Z 2321/2424 06015G25KT P6SM SCT030 BKN050
     FM240600 06011KT P6SM FEW030 SCT050
     FM242000 06014G24KT P6SM SCT030 BKN050=



000
FTPA31 PHFO 232100 AAA
TAFHNL
TAF AMD
PHNL 232105Z 2321/2424 06015G25KT P6SM SCT030 BKN050
     FM240600 06011KT P6SM FEW030 SCT050
     FM242000 06014G24KT P6SM SCT030 BKN050=



000
FTPA31 PHFO 231700
TAFHNL
TAF
PHNL 231735Z 2318/2424 06010G17KT P6SM FEW025 SCT050
     FM232100 06015G25KT P6SM SCT030 BKN050
     FM240600 06011KT P6SM FEW030 SCT050
     FM242000 06014G24KT P6SM SCT030 BKN050=



000
FTPA31 PHFO 231500 AAB
TAFHNL
TAF AMD
PHNL 231550Z 2316/2418 07008KT P6SM SCT030 BKN250
     FM232100 06012G22KT P6SM SCT030 BKN050
     FM240600 06012KT P6SM SCT030 BKN050=



000
FTPA31 PHFO 231500 AAB
TAFHNL
TAF AMD
PHNL 231550Z 2316/2418 07008KT P6SM SCT030 BKN250
     FM232100 06012G22KT P6SM SCT030 BKN050
     FM240600 06012KT P6SM SCT030 BKN050=



000
FTPA31 PHFO 231200 AAA
TAFHNL
TAF AMD
PHNL 231259Z 2313/2418 07008KT P6SM SCT030 BKN250
      TEMPO 2313/2315 -SHRA SCT018 BKN025
     FM232100 06012G22KT P6SM SCT030 BKN050
     FM240600 06012KT P6SM SCT030 BKN050=



000
FTPA31 PHFO 231200 AAA
TAFHNL
TAF AMD
PHNL 231259Z 2313/2418 07008KT P6SM SCT030 BKN250
      TEMPO 2313/2315 -SHRA SCT018 BKN025
     FM232100 06012G22KT P6SM SCT030 BKN050
     FM240600 06012KT P6SM SCT030 BKN050=



000
FTPA31 PHFO 231100
TAFHNL
TAF
PHNL 231131Z 2312/2418 07008KT P6SM SCT030 BKN250
     FM232100 06012G22KT P6SM SCT030 BKN050
     FM240600 06012KT P6SM SCT030 BKN050=



000
FTPA31 PHFO 231100
TAFHNL
TAF
PHNL 231131Z 2312/2418 07008KT P6SM SCT030 BKN250
     FM232100 06012G22KT P6SM SCT030 BKN050
     FM240600 06012KT P6SM SCT030 BKN050=



000
FTPA31 PHFO 230800 AAA
TAFHNL
TAF AMD
PHNL 230857Z 2309/2412 06008KT P6SM SCT030 BKN050
     FM232100 05012G22KT P6SM SCT030 BKN050
     FM240600 05012KT P6SM SCT030 BKN050=



000
FTPA31 PHFO 230500
TAFHNL
TAF
PHNL 230520Z 2306/2412 06012KT P6SM SCT030 BKN050
     FM230800 06008KT P6SM SCT030 BKN050
     FM232100 05012G22KT P6SM SCT030 BKN050
     FM240600 05012KT P6SM SCT030 BKN050=



000
FTPA31 PHFO 230500
TAFHNL
TAF
PHNL 230520Z 2306/2412 06012KT P6SM SCT030 BKN050
     FM230800 06008KT P6SM SCT030 BKN050
     FM232100 05012G22KT P6SM SCT030 BKN050
     FM240600 05012KT P6SM SCT030 BKN050=



000
FTPA31 PHFO 230300 AAA
TAFHNL
TAF AMD
PHNL 230305Z 2303/2406 06012G20KT P6SM SCT030 BKN050
     FM230500 05008KT P6SM FEW025 SCT045
     FM232000 05015G24KT P6SM FEW030 SCT050
     FM240500 05011G16KT P6SM FEW030 SCT050=



000
FTPA31 PHFO 230300 AAA
TAFHNL
TAF AMD
PHNL 230305Z 2303/2406 06012G20KT P6SM SCT030 BKN050
     FM230500 05008KT P6SM FEW025 SCT045
     FM232000 05015G24KT P6SM FEW030 SCT050
     FM240500 05011G16KT P6SM FEW030 SCT050=



000
FTPA31 PHFO 222300
TAFHNL
TAF
PHNL 222334Z 2300/2406 06012G20KT P6SM SCT030 BKN050
     FM230500 05008KT P6SM FEW025 SCT045
     FM232000 05015G24KT P6SM FEW030 SCT050
     FM240500 05011G16KT P6SM FEW030 SCT050=



000
FTPA31 PHFO 222300
TAFHNL
TAF
PHNL 222334Z 2300/2406 06012G20KT P6SM SCT030 BKN050
     FM230500 05008KT P6SM FEW025 SCT045
     FM232000 05015G24KT P6SM FEW030 SCT050
     FM240500 05011G16KT P6SM FEW030 SCT050=



000
FTPA31 PHFO 222100 AAA
TAFHNL
TAF AMD
PHNL 222105Z 2221/2324 06011KT P6SM SCT030 BKN050
     FM230500 05008KT P6SM FEW025 SCT045
     FM232000 06013G21KT P6SM FEW030 SCT050=



000
FTPA31 PHFO 221700
TAFHNL
TAF
PHNL 221735Z 2218/2324 VRB05KT P6SM FEW020 SCT050 BKN250
     FM222100 06011KT P6SM FEW030 SCT050
     FM230500 05008KT P6SM FEW025 SCT045
     FM232000 06013G21KT P6SM FEW030 SCT050=



000
FTPA31 PHFO 221700
TAFHNL
TAF
PHNL 221735Z 2218/2324 VRB05KT P6SM FEW020 SCT050 BKN250
     FM222100 06011KT P6SM FEW030 SCT050
     FM230500 05008KT P6SM FEW025 SCT045
     FM232000 06013G21KT P6SM FEW030 SCT050=



000
FTPA31 PHFO 221400 AAB
TAFHNL
TAF AMD
PHNL 221436Z 2215/2318 03004KT P6SM SCT017 SCT035
     FM222000 06012KT P6SM FEW023 BKN040
     FM230500 05008KT P6SM FEW028 BKN045=



000
FTPA31 PHFO 221400 AAB
TAFHNL
TAF AMD
PHNL 221436Z 2215/2318 03004KT P6SM SCT017 SCT035
     FM222000 06012KT P6SM FEW023 BKN040
     FM230500 05008KT P6SM FEW028 BKN045=



000
FTPA31 PHFO 221200 AAA
TAFHNL
TAF AMD
PHNL 221230Z 2213/2318 01004KT P6SM FEW023 SCT040 BKN200
      TEMPO 2213/2215 BKN015
     FM222000 06012KT P6SM FEW025 BKN040
     FM230500 05008KT P6SM FEW028 BKN045=



000
FTPA31 PHFO 221200 AAA
TAFHNL
TAF AMD
PHNL 221230Z 2213/2318 01004KT P6SM FEW023 SCT040 BKN200
      TEMPO 2213/2215 BKN015
     FM222000 06012KT P6SM FEW025 BKN040
     FM230500 05008KT P6SM FEW028 BKN045=



000
FTPA31 PHFO 221100
TAFHNL
TAF
PHNL 221138Z 2212/2318 01004KT P6SM FEW025 SCT040 BKN200
     FM222000 06012KT P6SM FEW025 BKN040
     FM230500 05008KT P6SM FEW028 BKN045=



000
FTPA31 PHFO 220900 AAB
TAFHNL
TAF AMD
PHNL 220905Z 2209/2312 00000KT P6SM VCSH SCT018 BKN035
     FM222000 06012KT P6SM FEW025 BKN040
     FM230500 05009KT P6SM FEW025 BKN045=



000
FTPA31 PHFO 220900 AAB
TAFHNL
TAF AMD
PHNL 220905Z 2209/2312 00000KT P6SM VCSH SCT018 BKN035
     FM222000 06012KT P6SM FEW025 BKN040
     FM230500 05009KT P6SM FEW025 BKN045=



000
FTPA31 PHFO 220700 AAA
TAFHNL
TAF AMD
PHNL 220759Z 2208/2312 00000KT P6SM VCSH SCT018 BKN035
     FM222000 06012KT P6SM FEW025 BKN040
     FM230500 05009KT P6SM FEW025 BKN045=



000
FTPA31 PHFO 220700 AAA
TAFHNL
TAF AMD
PHNL 220759Z 2208/2312 00000KT P6SM VCSH SCT018 BKN035
     FM222000 06012KT P6SM FEW025 BKN040
     FM230500 05009KT P6SM FEW025 BKN045=



000
FTPA31 PHFO 220500
TAFHNL
TAF
PHNL 220520Z 2206/2312 VRB05KT P6SM SCT025 BKN050
     FM222000 06011G18KT P6SM FEW030 BKN050
     FM230500 05009KT P6SM FEW025 BKN045=



000
FTPA31 PHFO 220300 AAA
TAFHNL
TAF AMD
PHNL 220305Z 2203/2306 15008KT P6SM VCSH SCT025 BKN035
     FM220600 VRB05KT P6SM SCT025 BKN035
     FM222000 05011G18KT P6SM FEW030 SCT045
     FM230500 05009KT P6SM FEW025 SCT040=



000
FTPA31 PHFO 220300 AAA
TAFHNL
TAF AMD
PHNL 220305Z 2203/2306 15008KT P6SM VCSH SCT025 BKN035
     FM220600 VRB05KT P6SM SCT025 BKN035
     FM222000 05011G18KT P6SM FEW030 SCT045
     FM230500 05009KT P6SM FEW025 SCT040=



000
FTPA31 PHFO 212300
TAFHNL
TAF
PHNL 212337Z 2200/2306 15008KT P6SM VCSH SCT025 BKN035
     FM220600 VRB05KT P6SM SCT025 BKN035
     FM222000 05011G18KT P6SM FEW030 SCT045
     FM230500 05009KT P6SM FEW025 SCT040=



000
FTPA31 PHFO 212300
TAFHNL
TAF
PHNL 212337Z 2200/2306 15008KT P6SM VCSH SCT025 BKN035
     FM220600 VRB05KT P6SM SCT025 BKN035
     FM222000 05011G18KT P6SM FEW030 SCT045
     FM230500 05009KT P6SM FEW025 SCT040=



000
FTPA31 PHFO 212100 AAA
TAFHNL
TAF AMD
PHNL 212105Z 2121/2224 10009KT P6SM VCSH SCT030 SCT045
     FM220600 06008KT P6SM SCT030 BKN045
     FM222000 05011G18KT P6SM SCT030 SCT045=



000
FTPA31 PHFO 212100 AAA
TAFHNL
TAF AMD
PHNL 212105Z 2121/2224 10009KT P6SM VCSH SCT030 SCT045
     FM220600 06008KT P6SM SCT030 BKN045
     FM222000 05011G18KT P6SM SCT030 SCT045=



    US Dept of Commerce
    National Oceanic and Atmospheric Administration
    National Weather Service
    1325 East West Highway
    Silver Spring, MD 20910
    Page Author: NWS Internet Services Team
Disclaimer
Information Quality
Credits
Glossary
Privacy Policy
Freedom of Information Act (FOIA)
About Us
Career Opportunities